createdAt,value
2018-04-11T00:00:57.504Z,20.70
2018-04-11T00:01:57.492Z,20.10
2018-04-11T00:02:57.480Z,20.10
2018-04-11T00:03:57.461Z,20.10
2018-04-11T00:04:57.451Z,20.60
2018-04-11T00:05:57.438Z,19.40
2018-04-11T00:06:57.424Z,19.70
2018-04-11T00:07:57.415Z,18.80
2018-04-11T00:08:57.405Z,18.60
2018-04-11T00:09:57.393Z,18.60
2018-04-11T00:10:57.383Z,18.80
2018-04-11T00:11:57.374Z,19.20
2018-04-11T00:12:57.353Z,19.20
2018-04-11T00:13:57.346Z,18.60
2018-04-11T00:14:57.331Z,19.50
2018-04-11T00:15:57.323Z,18.70
2018-04-11T00:16:57.304Z,18.90
2018-04-11T00:17:57.345Z,19.50
2018-04-11T00:18:57.297Z,19.60
2018-04-11T00:19:57.270Z,18.10
2018-04-11T00:20:57.257Z,18.30
2018-04-11T00:21:57.246Z,17.60
2018-04-11T00:22:57.235Z,18.70
2018-04-11T00:23:57.219Z,17.90
2018-04-11T00:24:57.211Z,18.90
2018-04-11T00:25:57.196Z,18.10
2018-04-11T00:26:57.186Z,18.30
2018-04-11T00:27:57.176Z,17.50
2018-04-11T00:28:57.157Z,18.60
2018-04-11T00:29:57.145Z,19.50
2018-04-11T00:30:57.137Z,18.00
2018-04-11T00:31:57.122Z,19.20
2018-04-11T00:32:57.109Z,18.90
2018-04-11T00:33:57.093Z,20.10
2018-04-11T00:34:57.082Z,19.00
2018-04-11T00:35:57.071Z,20.80
2018-04-11T00:36:57.052Z,20.20
2018-04-11T00:37:57.042Z,21.50
2018-04-11T00:38:57.032Z,22.80
2018-04-11T00:39:57.013Z,22.60
2018-04-11T00:40:57.008Z,23.00
2018-04-11T00:41:56.993Z,22.70
2018-04-11T00:42:56.981Z,23.90
2018-04-11T00:43:56.974Z,23.90
2018-04-11T00:44:56.994Z,22.50
2018-04-11T00:45:56.945Z,24.00
2018-04-11T00:46:56.935Z,25.60
2018-04-11T00:47:56.921Z,28.50
2018-04-11T00:48:56.918Z,27.90
2018-04-11T00:49:56.889Z,28.80
2018-04-11T00:50:56.881Z,29.30
2018-04-11T00:51:56.868Z,29.90
2018-04-11T00:52:56.851Z,31.20
2018-04-11T00:53:56.841Z,32.00
2018-04-11T00:54:56.825Z,32.50
2018-04-11T00:55:56.814Z,34.90
2018-04-11T00:56:56.803Z,34.20
2018-04-11T00:57:56.790Z,35.00
2018-04-11T00:58:56.780Z,35.30
2018-04-11T00:59:56.770Z,36.00
2018-04-11T01:00:56.749Z,36.20
2018-04-11T01:01:56.737Z,36.80
2018-04-11T01:02:56.734Z,35.70
2018-04-11T01:03:56.709Z,35.60
2018-04-11T01:04:56.698Z,37.90
2018-04-11T01:05:56.689Z,36.60
2018-04-11T01:06:56.679Z,37.40
2018-04-11T01:07:56.659Z,37.60
2018-04-11T01:08:56.649Z,38.00
2018-04-11T01:09:56.636Z,37.10
2018-04-11T01:10:56.626Z,38.10
2018-04-11T01:11:56.609Z,37.90
2018-04-11T01:12:56.605Z,39.00
2018-04-11T01:13:56.585Z,38.70
2018-04-11T01:14:56.569Z,40.10
2018-04-11T01:15:56.559Z,38.30
2018-04-11T01:16:56.542Z,38.90
2018-04-11T01:17:56.537Z,39.20
2018-04-11T01:18:56.519Z,39.20
2018-04-11T01:19:56.509Z,39.50
2018-04-11T01:20:56.498Z,38.70
2018-04-11T01:21:56.481Z,39.60
2018-04-11T01:22:56.467Z,40.00
2018-04-11T01:23:56.452Z,37.40
2018-04-11T01:24:56.452Z,40.20
2018-04-11T01:25:56.429Z,38.80
2018-04-11T01:26:56.413Z,39.30
2018-04-11T01:27:56.410Z,39.50
2018-04-11T01:28:56.387Z,38.60
2018-04-11T01:29:56.381Z,40.00
2018-04-11T01:30:56.369Z,39.40
2018-04-11T01:31:56.347Z,38.50
2018-04-11T01:32:56.342Z,38.80
2018-04-11T01:33:56.324Z,39.60
2018-04-11T01:34:56.312Z,40.80
2018-04-11T01:35:56.303Z,39.80
2018-04-11T01:36:56.285Z,39.40
2018-04-11T01:37:56.279Z,38.00
2018-04-11T01:38:56.257Z,39.00
2018-04-11T01:39:56.259Z,38.60
2018-04-11T01:40:56.229Z,39.60
2018-04-11T01:41:56.217Z,39.40
2018-04-11T01:42:56.207Z,39.10
2018-04-11T01:43:56.198Z,40.10
2018-04-11T01:44:56.178Z,38.50
2018-04-11T01:45:56.167Z,39.90
2018-04-11T01:46:56.156Z,38.50
2018-04-11T01:47:56.136Z,38.20
2018-04-11T01:48:56.128Z,39.50
2018-04-11T01:49:56.116Z,38.90
2018-04-11T01:50:56.099Z,40.20
2018-04-11T01:51:56.090Z,40.20
2018-04-11T01:52:56.073Z,39.80
2018-04-11T01:53:56.060Z,39.20
2018-04-11T01:54:56.054Z,39.10
2018-04-11T01:55:56.037Z,38.40
2018-04-11T01:56:56.028Z,40.80
2018-04-11T01:57:56.009Z,38.70
2018-04-11T01:58:55.999Z,41.40
2018-04-11T01:59:55.978Z,40.40
2018-04-11T02:00:55.969Z,40.10
2018-04-11T02:01:55.963Z,40.40
2018-04-11T02:02:56.016Z,40.10
2018-04-11T02:03:55.926Z,39.80
2018-04-11T02:04:55.918Z,40.10
2018-04-11T02:05:55.899Z,38.90
2018-04-11T02:06:56.002Z,39.70
2018-04-11T02:07:55.881Z,38.70
2018-04-11T02:08:56.063Z,40.30
2018-04-11T02:09:55.849Z,39.90
2018-04-11T02:10:55.839Z,39.70
2018-04-11T02:11:55.819Z,38.60
2018-04-11T02:12:55.852Z,39.90
2018-04-11T02:13:55.793Z,37.90
2018-04-11T02:14:55.827Z,39.00
2018-04-11T02:15:55.767Z,39.70
2018-04-11T02:16:55.748Z,40.60
2018-04-11T02:17:55.735Z,39.20
2018-04-11T02:18:55.725Z,38.70
2018-04-11T02:19:55.708Z,38.10
2018-04-11T02:20:55.699Z,39.10
2018-04-11T02:21:55.684Z,40.50
2018-04-11T02:22:55.667Z,40.10
2018-04-11T02:23:55.659Z,39.90
2018-04-11T02:24:55.648Z,40.20
2018-04-11T02:25:55.629Z,39.30
2018-04-11T02:26:55.618Z,39.30
2018-04-11T02:27:55.600Z,39.70
2018-04-11T02:28:55.591Z,38.70
2018-04-11T02:29:55.573Z,37.40
2018-04-11T02:30:55.570Z,39.30
2018-04-11T02:31:55.561Z,37.90
2018-04-11T02:32:55.546Z,38.80
2018-04-11T02:33:55.520Z,38.80
2018-04-11T02:34:55.511Z,39.40
2018-04-11T02:35:55.491Z,38.90
2018-04-11T02:36:55.484Z,39.90
2018-04-11T02:37:55.468Z,38.90
2018-04-11T02:38:55.452Z,38.10
2018-04-11T02:39:55.439Z,38.20
2018-04-11T02:40:55.430Z,39.00
2018-04-11T02:41:55.414Z,39.10
2018-04-11T02:42:55.402Z,39.50
2018-04-11T02:43:55.382Z,39.30
2018-04-11T02:44:55.412Z,38.40
2018-04-11T02:45:55.367Z,38.50
2018-04-11T02:46:55.341Z,39.70
2018-04-11T02:47:55.325Z,38.10
2018-04-11T02:48:55.313Z,39.20
2018-04-11T02:49:55.298Z,37.10
2018-04-11T02:50:55.283Z,36.80
2018-04-11T02:51:55.269Z,37.10
2018-04-11T02:52:55.251Z,37.30
2018-04-11T02:53:55.244Z,38.30
2018-04-11T02:54:55.222Z,37.50
2018-04-11T02:55:55.216Z,39.00
2018-04-11T02:56:55.198Z,38.10
2018-04-11T02:57:55.185Z,39.20
2018-04-11T02:58:55.167Z,37.60
2018-04-11T02:59:55.157Z,38.30
2018-04-11T03:00:55.136Z,37.70
2018-04-11T03:01:55.133Z,38.70
2018-04-11T03:02:55.108Z,35.70
2018-04-11T03:03:55.102Z,38.90
2018-04-11T03:04:55.078Z,38.00
2018-04-11T03:05:55.062Z,36.40
2018-04-11T03:06:55.056Z,38.50
2018-04-11T03:07:55.036Z,37.80
2018-04-11T03:08:55.026Z,36.80
2018-04-11T03:09:55.010Z,36.60
2018-04-11T03:10:54.992Z,37.30
2018-04-11T03:11:54.980Z,36.90
2018-04-11T03:12:54.963Z,37.00
2018-04-11T03:13:54.954Z,36.20
2018-04-11T03:14:54.940Z,36.40
2018-04-11T03:15:54.919Z,34.30
2018-04-11T03:16:54.911Z,36.40
2018-04-11T03:17:54.900Z,35.90
2018-04-11T03:18:54.887Z,34.80
2018-04-11T03:19:54.867Z,35.80
2018-04-11T03:20:54.849Z,35.60
2018-04-11T03:21:54.860Z,35.00
2018-04-11T03:22:54.818Z,35.60
2018-04-11T03:23:54.807Z,35.10
2018-04-11T03:24:54.787Z,35.90
2018-04-11T03:25:54.776Z,36.00
2018-04-11T03:26:54.755Z,36.20
2018-04-11T03:27:54.747Z,36.80
2018-04-11T03:28:54.731Z,33.70
2018-04-11T03:29:54.710Z,34.30
2018-04-11T03:30:54.698Z,35.30
2018-04-11T03:31:54.687Z,36.10
2018-04-11T03:32:54.663Z,34.90
2018-04-11T03:33:54.656Z,34.90
2018-04-11T03:34:54.636Z,36.10
2018-04-11T03:35:54.625Z,35.30
2018-04-11T03:36:54.605Z,35.50
2018-04-11T03:37:54.598Z,35.20
2018-04-11T03:38:54.576Z,35.80
2018-04-11T03:39:54.675Z,35.40
2018-04-11T03:40:54.548Z,34.30
2018-04-11T03:41:54.539Z,34.80
2018-04-11T03:42:54.517Z,35.20
2018-04-11T03:43:54.506Z,35.00
2018-04-11T03:44:54.488Z,35.00
2018-04-11T03:45:54.476Z,35.10
2018-04-11T03:46:54.465Z,34.80
2018-04-11T03:47:54.446Z,35.00
2018-04-11T03:48:54.426Z,33.90
2018-04-11T03:49:54.416Z,32.70
2018-04-11T03:50:54.401Z,34.60
2018-04-11T03:51:54.515Z,34.50
2018-04-11T03:52:54.367Z,33.50
2018-04-11T03:53:54.507Z,35.40
2018-04-11T03:54:54.337Z,33.70
2018-04-11T03:55:54.327Z,34.80
2018-04-11T03:56:54.307Z,34.30
2018-04-11T03:57:54.368Z,33.70
2018-04-11T03:58:54.295Z,33.30
2018-04-11T03:59:54.266Z,34.30
2018-04-11T04:00:54.247Z,33.50
2018-04-11T04:01:54.237Z,34.20
2018-04-11T04:02:54.231Z,32.70
2018-04-11T04:03:54.203Z,33.00
2018-04-11T04:04:54.188Z,34.00
2018-04-11T04:05:54.176Z,34.70
2018-04-11T04:06:54.166Z,32.40
2018-04-11T04:07:54.144Z,33.00
2018-04-11T04:08:54.127Z,33.60
2018-04-11T04:09:54.111Z,34.60
2018-04-11T04:10:54.097Z,33.90
2018-04-11T04:11:54.080Z,34.10
2018-04-11T04:12:54.065Z,33.70
2018-04-11T04:13:54.060Z,33.00
2018-04-11T04:14:54.043Z,33.10
2018-04-11T04:15:54.028Z,32.30
2018-04-11T04:16:54.007Z,33.80
2018-04-11T04:17:53.996Z,33.10
2018-04-11T04:18:53.977Z,32.10
2018-04-11T04:19:53.967Z,32.90
2018-04-11T04:20:53.946Z,32.20
2018-04-11T04:21:53.930Z,32.80
2018-04-11T04:22:53.916Z,32.60
2018-04-11T04:23:53.910Z,31.50
2018-04-11T04:24:53.886Z,32.30
2018-04-11T04:25:53.886Z,32.20
2018-04-11T04:26:53.856Z,32.30
2018-04-11T04:27:53.840Z,31.90
2018-04-11T04:28:53.826Z,31.90
2018-04-11T04:29:53.812Z,31.90
2018-04-11T04:30:53.793Z,33.10
2018-04-11T04:31:53.781Z,31.20
2018-04-11T04:32:53.766Z,34.40
2018-04-11T04:33:53.749Z,85.80
2018-04-11T04:34:53.734Z,47.60
2018-04-11T04:35:53.718Z,36.70
2018-04-11T04:36:53.702Z,32.30
2018-04-11T04:37:53.689Z,39.10
2018-04-11T04:38:53.674Z,33.20
2018-04-11T04:39:53.663Z,32.50
2018-04-11T04:40:53.647Z,32.40
2018-04-11T04:41:53.629Z,32.90
2018-04-11T04:42:53.615Z,31.20
2018-04-11T04:43:53.597Z,31.30
2018-04-11T04:44:53.583Z,31.50
2018-04-11T04:45:53.566Z,30.80
2018-04-11T04:46:53.552Z,31.80
2018-04-11T04:47:53.548Z,31.30
2018-04-11T04:48:53.524Z,31.30
2018-04-11T04:49:53.505Z,30.40
2018-04-11T04:50:53.493Z,31.20
2018-04-11T04:51:53.474Z,31.40
2018-04-11T04:52:53.465Z,31.00
2018-04-11T04:53:53.454Z,30.80
2018-04-11T04:54:53.433Z,31.40
2018-04-11T04:55:53.461Z,29.80
2018-04-11T04:56:53.408Z,30.70
2018-04-11T04:57:53.385Z,30.70
2018-04-11T04:58:53.376Z,30.50
2018-04-11T04:59:53.355Z,30.00
2018-04-11T05:00:53.341Z,29.80
2018-04-11T05:01:53.324Z,31.50
2018-04-11T05:02:53.306Z,29.90
2018-04-11T05:03:53.646Z,31.10
2018-04-11T05:04:53.275Z,30.20
2018-04-11T05:05:53.262Z,31.50
2018-04-11T05:06:53.245Z,30.60
2018-04-11T05:07:53.230Z,31.00
2018-04-11T05:08:53.224Z,31.70
2018-04-11T05:09:53.199Z,31.00
2018-04-11T05:10:53.186Z,31.30
2018-04-11T05:11:53.170Z,30.80
2018-04-11T05:12:53.157Z,30.20
2018-04-11T05:13:53.136Z,30.90
2018-04-11T05:14:53.122Z,29.80
2018-04-11T05:15:53.106Z,28.60
2018-04-11T05:16:53.097Z,31.00
2018-04-11T05:17:53.074Z,30.70
2018-04-11T05:18:53.059Z,31.90
2018-04-11T05:19:53.043Z,30.90
2018-04-11T05:20:53.028Z,30.10
2018-04-11T05:21:53.013Z,30.40
2018-04-11T05:22:53.000Z,30.80
2018-04-11T05:23:52.984Z,30.10
2018-04-11T05:24:52.964Z,29.20
2018-04-11T05:25:52.951Z,30.80
2018-04-11T05:26:52.932Z,29.40
2018-04-11T05:27:52.920Z,30.70
2018-04-11T05:28:52.903Z,30.70
2018-04-11T05:29:52.902Z,29.30
2018-04-11T05:30:52.878Z,28.30
2018-04-11T05:31:52.856Z,29.50
2018-04-11T05:32:52.840Z,30.00
2018-04-11T05:33:52.825Z,30.50
2018-04-11T05:34:52.813Z,30.00
2018-04-11T05:35:52.804Z,30.40
2018-04-11T05:36:52.775Z,29.70
2018-04-11T05:37:52.765Z,30.00
2018-04-11T05:38:52.756Z,30.10
2018-04-11T05:39:52.730Z,30.80
2018-04-11T05:40:52.849Z,31.10
2018-04-11T05:41:52.712Z,31.40
2018-04-11T05:42:52.691Z,31.00
2018-04-11T05:43:52.672Z,28.40
2018-04-11T05:44:52.657Z,30.20
2018-04-11T05:45:52.642Z,30.00
2018-04-11T05:46:52.623Z,30.00
2018-04-11T05:47:52.606Z,31.00
2018-04-11T05:48:52.595Z,29.90
2018-04-11T05:49:52.575Z,30.10
2018-04-11T05:50:52.566Z,29.80
2018-04-11T05:51:52.555Z,30.30
2018-04-11T05:52:52.536Z,30.50
2018-04-11T05:53:52.516Z,28.70
2018-04-11T05:54:52.504Z,29.40
2018-04-11T05:55:52.485Z,28.70
2018-04-11T05:56:52.474Z,30.90
2018-04-11T05:57:52.455Z,29.60
2018-04-11T05:58:52.446Z,31.00
2018-04-11T05:59:52.426Z,29.90
2018-04-11T06:00:52.434Z,30.00
2018-04-11T06:01:52.400Z,30.20
2018-04-11T06:02:52.383Z,30.60
2018-04-11T06:03:52.358Z,29.80
2018-04-11T06:04:52.344Z,28.50
2018-04-11T06:05:52.330Z,29.30
2018-04-11T06:06:52.317Z,29.90
2018-04-11T06:07:52.306Z,29.00
2018-04-11T06:08:52.285Z,30.20
2018-04-11T06:09:52.286Z,30.10
2018-04-11T06:10:52.261Z,28.80
2018-04-11T06:11:52.237Z,30.20
2018-04-11T06:12:52.226Z,30.30
2018-04-11T06:13:52.209Z,29.30
2018-04-11T06:14:52.211Z,29.10
2018-04-11T06:15:52.177Z,28.50
2018-04-11T06:16:52.163Z,29.10
2018-04-11T06:17:52.146Z,28.80
2018-04-11T06:18:52.136Z,29.00
2018-04-11T06:19:52.123Z,28.50
2018-04-11T06:20:52.105Z,28.50
2018-04-11T06:21:52.092Z,28.80
2018-04-11T06:22:52.101Z,29.90
2018-04-11T06:23:52.064Z,28.80
2018-04-11T06:24:52.043Z,29.20
2018-04-11T06:25:52.033Z,29.40
2018-04-11T06:26:52.023Z,28.50
2018-04-11T06:27:52.004Z,29.50
2018-04-11T06:28:51.986Z,29.80
2018-04-11T06:29:52.028Z,30.20
2018-04-11T06:30:51.959Z,29.30
2018-04-11T06:31:51.943Z,29.50
2018-04-11T06:32:51.930Z,28.80
2018-04-11T06:33:51.923Z,29.70
2018-04-11T06:34:51.902Z,29.00
2018-04-11T06:35:51.895Z,27.50
2018-04-11T06:36:51.873Z,28.80
2018-04-11T06:37:51.863Z,27.70
2018-04-11T06:38:51.849Z,29.80
2018-04-11T06:39:51.835Z,29.70
2018-04-11T06:40:51.865Z,28.30
2018-04-11T06:41:51.812Z,28.90
2018-04-11T06:42:51.809Z,29.00
2018-04-11T06:43:51.775Z,28.90
2018-04-11T06:44:51.766Z,28.40
2018-04-11T06:45:51.753Z,29.20
2018-04-11T06:46:51.734Z,28.10
2018-04-11T06:47:51.723Z,28.40
2018-04-11T06:48:51.710Z,27.20
2018-04-11T06:49:51.703Z,28.40
2018-04-11T06:50:51.683Z,29.30
2018-04-11T06:51:51.671Z,29.00
2018-04-11T06:52:51.664Z,27.80
2018-04-11T06:53:51.653Z,28.80
2018-04-11T06:54:51.644Z,28.40
2018-04-11T06:55:51.626Z,28.70
2018-04-11T06:56:51.616Z,26.60
2018-04-11T06:57:51.603Z,27.40
2018-04-11T06:58:51.593Z,27.30
2018-04-11T06:59:51.584Z,27.80
2018-04-11T07:00:51.570Z,26.90
2018-04-11T07:01:51.559Z,27.30
2018-04-11T07:02:51.553Z,26.30
2018-04-11T07:03:51.538Z,27.60
2018-04-11T07:04:51.527Z,27.10
2018-04-11T07:05:51.522Z,27.30
2018-04-11T07:06:51.511Z,26.40
2018-04-11T07:07:51.508Z,26.30
2018-04-11T07:08:51.494Z,27.40
2018-04-11T07:09:51.483Z,26.30
2018-04-11T07:10:51.473Z,27.20
2018-04-11T07:11:51.470Z,26.40
2018-04-11T07:12:51.473Z,26.30
2018-04-11T07:13:51.460Z,27.50
2018-04-11T07:14:51.444Z,26.10
2018-04-11T07:15:51.443Z,26.30
2018-04-11T07:16:51.426Z,25.20
2018-04-11T07:17:51.573Z,25.50
2018-04-11T07:18:51.412Z,25.90
2018-04-11T07:19:51.470Z,25.90
2018-04-11T07:20:51.400Z,25.90
2018-04-11T07:21:51.417Z,26.20
2018-04-11T07:22:51.390Z,25.80
2018-04-11T07:23:51.403Z,25.60
2018-04-11T07:24:51.389Z,25.60
2018-04-11T07:25:51.432Z,25.00
2018-04-11T07:26:51.369Z,24.90
2018-04-11T07:27:51.413Z,25.00
2018-04-11T07:28:51.365Z,24.70
2018-04-11T07:29:51.364Z,25.30
2018-04-11T07:30:51.348Z,26.60
2018-04-11T07:31:51.343Z,25.60
2018-04-11T07:32:51.339Z,24.60
2018-04-11T07:33:51.344Z,23.60
2018-04-11T07:34:51.332Z,24.00
2018-04-11T07:35:51.331Z,24.00
2018-04-11T07:36:51.329Z,23.10
2018-04-11T07:37:56.381Z,23.00
2018-04-11T07:38:51.323Z,23.00
2018-04-11T07:39:51.322Z,23.20
2018-04-11T07:40:51.315Z,23.30
2018-04-11T07:41:51.313Z,22.80
2018-04-11T07:42:51.324Z,24.20
2018-04-11T07:43:51.312Z,22.10
2018-04-11T07:44:51.308Z,23.20
2018-04-11T07:45:51.312Z,24.00
2018-04-11T07:46:51.412Z,23.00
2018-04-11T07:49:51.313Z,22.70
2018-04-11T07:50:51.404Z,22.90
2018-04-11T07:51:51.307Z,22.70
2018-04-11T07:52:51.303Z,23.30
2018-04-11T07:53:51.299Z,22.90
2018-04-11T07:54:51.302Z,22.40
2018-04-11T07:55:51.299Z,22.20
2018-04-11T07:56:51.302Z,22.70
2018-04-11T07:57:51.303Z,23.60
2018-04-11T07:58:51.309Z,23.10
2018-04-11T07:59:57.579Z,22.80
2018-04-11T08:00:51.300Z,23.10
2018-04-11T08:01:51.305Z,22.50
2018-04-11T08:02:51.309Z,22.80
2018-04-11T08:03:51.309Z,22.80
2018-04-11T08:04:51.314Z,21.90
2018-04-11T08:05:51.306Z,22.90
2018-04-11T08:06:51.306Z,22.90
2018-04-11T08:07:51.304Z,21.90
2018-04-11T08:08:51.305Z,22.40
2018-04-11T08:09:51.301Z,22.30
2018-04-11T08:10:51.298Z,21.80
2018-04-11T08:11:51.299Z,20.00
2018-04-11T08:12:51.299Z,21.60
2018-04-11T08:13:51.300Z,22.30
2018-04-11T08:14:51.307Z,21.50
2018-04-11T08:15:51.300Z,22.40
2018-04-11T08:16:51.303Z,22.70
2018-04-11T08:17:51.304Z,21.70
2018-04-11T08:18:51.304Z,21.50
2018-04-11T08:19:51.320Z,22.10
2018-04-11T08:20:51.312Z,22.10
2018-04-11T08:21:51.306Z,22.10
2018-04-11T08:22:54.344Z,22.50
2018-04-11T08:23:51.312Z,22.30
2018-04-11T08:24:51.312Z,21.00
2018-04-11T08:25:51.322Z,21.10
2018-04-11T08:26:51.325Z,21.40
2018-04-11T08:27:51.320Z,20.50
2018-04-11T08:28:51.327Z,21.40
2018-04-11T08:29:51.330Z,20.00
2018-04-11T08:30:51.341Z,20.70
2018-04-11T08:31:51.333Z,20.10
2018-04-11T08:32:51.333Z,18.40
2018-04-11T08:33:51.332Z,20.20
2018-04-11T08:34:51.347Z,20.10
2018-04-11T08:35:51.339Z,20.00
2018-04-11T08:36:51.348Z,20.00
2018-04-11T08:37:51.342Z,19.40
2018-04-11T08:38:51.355Z,20.20
2018-04-11T08:39:51.354Z,20.10
2018-04-11T08:40:51.354Z,19.10
2018-04-11T08:41:51.362Z,20.30
2018-04-11T08:42:51.361Z,20.50
2018-04-11T08:43:51.357Z,19.50
2018-04-11T08:44:51.363Z,20.00
2018-04-11T08:45:51.370Z,19.90
2018-04-11T08:46:51.372Z,19.00
2018-04-11T08:47:51.379Z,20.10
2018-04-11T08:48:51.383Z,18.40
2018-04-11T08:49:51.383Z,19.80
2018-04-11T08:50:51.384Z,21.10
2018-04-11T08:51:51.393Z,19.40
2018-04-11T08:52:51.394Z,19.30
2018-04-11T08:53:51.395Z,19.10
2018-04-11T08:54:51.400Z,19.20
2018-04-11T08:55:51.399Z,20.30
2018-04-11T08:56:51.406Z,20.50
2018-04-11T08:57:51.405Z,20.80
2018-04-11T08:58:51.413Z,21.20
2018-04-11T08:59:51.412Z,20.10
2018-04-11T09:00:51.427Z,20.30
2018-04-11T09:01:51.424Z,20.50
2018-04-11T09:02:51.422Z,20.40
2018-04-11T09:03:51.423Z,20.50
2018-04-11T09:04:51.422Z,20.50
2018-04-11T09:05:51.425Z,20.40
2018-04-11T09:06:51.433Z,19.70
2018-04-11T09:07:51.439Z,19.60
2018-04-11T09:08:51.434Z,19.10
2018-04-11T09:09:51.433Z,19.40
2018-04-11T09:10:51.440Z,19.70
2018-04-11T09:11:51.441Z,19.30
2018-04-11T09:12:51.444Z,19.90
2018-04-11T09:13:51.440Z,20.20
2018-04-11T09:14:51.444Z,20.20
2018-04-11T09:15:51.443Z,20.80
2018-04-11T09:16:51.444Z,20.30
2018-04-11T09:17:51.443Z,19.30
2018-04-11T09:18:51.453Z,20.20
2018-04-11T09:19:51.450Z,20.00
2018-04-11T09:20:51.523Z,20.10
2018-04-11T09:21:51.458Z,19.80
2018-04-11T09:22:51.456Z,19.90
2018-04-11T09:23:51.454Z,19.40
2018-04-11T09:24:51.454Z,19.10
2018-04-11T09:25:51.454Z,19.90
2018-04-11T09:26:51.454Z,19.50
2018-04-11T09:27:51.455Z,19.20
2018-04-11T09:28:51.450Z,19.30
2018-04-11T09:29:51.454Z,19.40
2018-04-11T09:30:51.463Z,19.70
2018-04-11T09:31:51.480Z,18.70
2018-04-11T09:32:51.453Z,19.60
2018-04-11T09:33:51.458Z,19.90
2018-04-11T09:34:51.445Z,20.80
2018-04-11T09:35:51.448Z,19.80
2018-04-11T09:36:51.443Z,19.70
2018-04-11T09:37:51.443Z,19.90
2018-04-11T09:38:51.448Z,18.90
2018-04-11T09:39:51.455Z,19.80
2018-04-11T09:40:51.434Z,20.00
2018-04-11T09:41:51.480Z,18.60
2018-04-11T09:42:51.435Z,20.00
2018-04-11T09:43:51.436Z,19.40
2018-04-11T09:44:51.434Z,19.40
2018-04-11T09:45:51.425Z,21.10
2018-04-11T09:46:51.427Z,22.20
2018-04-11T09:47:51.426Z,20.70
2018-04-11T09:48:51.416Z,21.30
2018-04-11T09:49:51.415Z,20.30
2018-04-11T09:50:51.416Z,20.80
2018-04-11T09:51:51.422Z,21.70
2018-04-11T09:52:51.415Z,20.70
2018-04-11T09:53:51.413Z,20.70
2018-04-11T09:54:51.403Z,21.20
2018-04-11T09:55:51.394Z,21.00
2018-04-11T09:56:51.392Z,20.70
2018-04-11T09:57:51.397Z,20.60
2018-04-11T09:58:51.389Z,20.80
2018-04-11T09:59:51.383Z,21.00
2018-04-11T10:00:51.388Z,21.50
2018-04-11T10:01:51.385Z,21.20
2018-04-11T10:02:51.374Z,21.70
2018-04-11T10:03:51.374Z,21.20
2018-04-11T10:04:51.364Z,21.30
2018-04-11T10:05:51.358Z,21.80
2018-04-11T10:06:51.373Z,21.80
2018-04-11T10:07:51.355Z,22.20
2018-04-11T10:08:51.354Z,21.70
2018-04-11T10:09:51.342Z,22.00
2018-04-11T10:10:51.343Z,21.20
2018-04-11T10:11:51.345Z,21.80
2018-04-11T10:12:51.336Z,22.20
2018-04-11T10:13:51.327Z,21.40
2018-04-11T10:14:51.324Z,20.90
2018-04-11T10:15:51.324Z,21.60
2018-04-11T10:16:51.314Z,21.60
2018-04-11T10:17:51.311Z,20.90
2018-04-11T10:18:51.306Z,21.50
2018-04-11T10:19:51.303Z,20.70
2018-04-11T10:20:51.296Z,22.00
2018-04-11T10:21:51.292Z,21.60
2018-04-11T10:22:51.298Z,21.30
2018-04-11T10:23:51.279Z,20.40
2018-04-11T10:24:51.331Z,21.20
2018-04-11T10:25:51.273Z,21.20
2018-04-11T10:26:51.269Z,20.90
2018-04-11T10:27:51.259Z,22.00
2018-04-11T10:28:51.259Z,21.70
2018-04-11T10:29:51.262Z,20.70
2018-04-11T10:30:51.249Z,21.20
2018-04-11T10:31:51.256Z,20.80
2018-04-11T10:32:51.234Z,22.40
2018-04-11T10:33:51.232Z,21.80
2018-04-11T10:34:51.226Z,22.10
2018-04-11T10:35:51.223Z,22.80
2018-04-11T10:37:51.206Z,22.20
2018-04-11T10:38:51.204Z,21.90
2018-04-11T10:39:51.194Z,21.80
2018-04-11T10:40:51.192Z,21.60
2018-04-11T10:41:51.195Z,21.80
2018-04-11T10:42:51.182Z,22.40
2018-04-11T10:43:51.177Z,22.90
2018-04-11T10:44:51.163Z,23.10
2018-04-11T10:45:51.152Z,23.00
2018-04-11T10:46:51.153Z,23.30
2018-04-11T10:47:51.154Z,23.30
2018-04-11T10:48:51.134Z,24.00
2018-04-11T10:49:51.125Z,22.50
2018-04-11T10:50:51.119Z,22.90
2018-04-11T10:51:51.110Z,21.90
2018-04-11T10:52:51.109Z,22.10
2018-04-11T10:53:51.102Z,22.90
2018-04-11T10:54:51.093Z,23.20
2018-04-11T10:55:51.086Z,22.20
2018-04-11T10:56:51.073Z,22.90
2018-04-11T10:57:51.073Z,23.00
2018-04-11T10:58:51.052Z,23.50
2018-04-11T10:59:51.050Z,24.00
2018-04-11T11:00:51.045Z,23.80
2018-04-11T11:01:51.035Z,23.70
2018-04-11T11:02:51.025Z,24.80
2018-04-11T11:03:51.082Z,24.60
2018-04-11T11:04:51.005Z,24.50
2018-04-11T11:05:51.093Z,25.40
2018-04-11T11:06:50.990Z,24.90
2018-04-11T11:07:51.091Z,25.70
2018-04-11T11:08:50.974Z,26.10
2018-04-11T11:09:51.013Z,26.10
2018-04-11T11:10:50.953Z,26.00
2018-04-11T11:11:50.994Z,25.70
2018-04-11T11:12:50.932Z,27.00
2018-04-11T11:13:50.974Z,24.90
2018-04-11T11:14:50.926Z,25.20
2018-04-11T11:15:50.913Z,25.40
2018-04-11T11:16:50.897Z,26.00
2018-04-11T11:17:50.902Z,25.90
2018-04-11T11:18:50.896Z,26.20
2018-04-11T11:19:50.868Z,25.00
2018-04-11T11:20:50.864Z,25.80
2018-04-11T11:21:50.853Z,26.10
2018-04-11T11:22:50.848Z,26.20
2018-04-11T11:23:50.837Z,26.20
2018-04-11T11:24:50.830Z,27.10
2018-04-11T11:25:50.821Z,26.10
2018-04-11T11:26:50.807Z,26.30
2018-04-11T11:27:50.803Z,25.80
2018-04-11T11:28:50.794Z,27.00
2018-04-11T11:29:50.785Z,25.70
2018-04-11T11:30:50.775Z,24.80
2018-04-11T11:31:50.772Z,23.90
2018-04-11T11:32:50.762Z,23.60
2018-04-11T11:33:50.756Z,23.60
2018-04-11T11:34:50.744Z,23.30
2018-04-11T11:35:50.735Z,23.30
2018-04-11T11:36:50.732Z,23.80
2018-04-11T11:37:50.723Z,22.90
2018-04-11T11:38:50.716Z,23.00
2018-04-11T11:39:50.707Z,24.00
2018-04-11T11:40:50.696Z,23.30
2018-04-11T11:41:50.686Z,22.90
2018-04-11T11:42:50.680Z,22.70
2018-04-11T11:43:50.674Z,24.80
2018-04-11T11:44:50.674Z,23.10
2018-04-11T11:45:50.655Z,24.20
2018-04-11T11:46:50.650Z,25.00
2018-04-11T11:47:50.636Z,24.20
2018-04-11T11:48:50.646Z,26.10
2018-04-11T11:49:50.614Z,25.20
2018-04-11T11:50:50.614Z,26.00
2018-04-11T11:51:50.605Z,24.80
2018-04-11T11:52:50.686Z,25.40
2018-04-11T11:53:50.590Z,25.60
2018-04-11T11:54:50.638Z,25.50
2018-04-11T11:55:50.563Z,26.40
2018-04-11T11:56:50.552Z,26.80
2018-04-11T11:57:50.547Z,27.40
2018-04-11T11:58:50.534Z,27.70
2018-04-11T11:59:50.548Z,28.20
2018-04-11T12:00:50.513Z,27.90
2018-04-11T12:01:50.511Z,28.40
2018-04-11T12:02:50.494Z,30.40
2018-04-11T12:03:50.485Z,29.80
2018-04-11T12:04:50.476Z,30.90
2018-04-11T12:05:50.463Z,29.40
2018-04-11T12:06:50.459Z,30.40
2018-04-11T12:07:50.454Z,31.00
2018-04-11T12:08:50.441Z,30.90
2018-04-11T12:09:50.424Z,30.10
2018-04-11T12:10:50.417Z,30.20
2018-04-11T12:11:50.413Z,30.50
2018-04-11T12:12:50.404Z,29.70
2018-04-11T12:13:50.451Z,31.90
2018-04-11T12:14:50.376Z,32.30
2018-04-11T12:15:50.369Z,31.90
2018-04-11T12:16:50.364Z,32.10
2018-04-11T12:17:50.356Z,30.80
2018-04-11T12:18:50.341Z,31.70
2018-04-11T12:19:50.331Z,31.40
2018-04-11T12:20:50.321Z,31.10
2018-04-11T12:21:50.310Z,31.20
2018-04-11T12:22:50.303Z,31.60
2018-04-11T12:23:50.289Z,30.40
2018-04-11T12:24:50.282Z,32.40
2018-04-11T12:25:50.274Z,31.40
2018-04-11T12:26:50.259Z,32.90
2018-04-11T12:27:50.249Z,32.50
2018-04-11T12:28:50.250Z,32.80
2018-04-11T12:29:50.233Z,33.70
2018-04-11T12:30:50.216Z,32.80
2018-04-11T12:31:50.209Z,33.00
2018-04-11T12:32:50.206Z,33.50
2018-04-11T12:33:50.192Z,33.00
2018-04-11T12:34:50.184Z,33.60
2018-04-11T12:35:50.178Z,34.00
2018-04-11T12:36:50.160Z,33.30
2018-04-11T12:37:50.153Z,33.60
2018-04-11T12:38:50.147Z,35.10
2018-04-11T12:39:50.129Z,35.50
2018-04-11T12:40:50.127Z,34.40
2018-04-11T12:41:50.116Z,34.40
2018-04-11T12:42:50.105Z,33.80
2018-04-11T12:43:50.089Z,34.40
2018-04-11T12:44:50.086Z,34.00
2018-04-11T12:45:50.069Z,34.10
2018-04-11T12:46:50.063Z,33.60
2018-04-11T12:47:50.060Z,33.30
2018-04-11T12:48:50.038Z,33.50
2018-04-11T12:49:50.031Z,33.40
2018-04-11T12:50:50.025Z,33.30
2018-04-11T12:51:50.009Z,33.20
2018-04-11T12:52:50.002Z,33.50
2018-04-11T12:53:49.990Z,33.20
2018-04-11T12:54:49.979Z,31.80
2018-04-11T12:55:49.977Z,32.90